Time;durP1;ratioP1;P1;durP2;ratioP2;P2;SDS_P1;SDS_P2;PMS_P1;PMS_P2;Temp;Humidity;BMP_temperature;BMP_pressure;BME280_temperature;BME280_humidity;BME280_pressure;Samples;Min_cycle;Max_cycle;Signal;HPM_P1;HPM_P2
2021/04/30 00:01:59;;;;;;;6.72;3.83;;;;;;;9.18;33.77;100735.84;3538687;40;20074;-74
2021/04/30 00:04:28;;;;;;;4.80;3.17;;;;;;;9.17;33.88;100747.75;3546265;40;20060;-73
2021/04/30 00:06:55;;;;;;;6.57;3.17;;;;;;;9.16;33.90;100735.09;3537633;40;20404;-73
2021/04/30 00:09:23;;;;;;;6.22;3.50;;;;;;;9.15;34.07;100740.66;3537121;40;20027;-73
2021/04/30 00:11:52;;;;;;;6.18;3.17;;;;;;;9.14;34.10;100736.19;3540163;40;20399;-74
2021/04/30 00:14:21;;;;;;;6.35;3.22;;;;;;;9.17;34.13;100741.41;3539263;40;20537;-73
2021/04/30 00:16:49;;;;;;;6.15;3.40;;;;;;;9.16;34.36;100740.53;3540834;40;20050;-75
2021/04/30 00:19:16;;;;;;;7.35;3.50;;;;;;;9.14;34.01;100734.34;3540363;40;20082;-73
2021/04/30 00:21:44;;;;;;;7.35;3.60;;;;;;;9.15;34.03;100736.06;3536644;40;20083;-74
2021/04/30 00:24:12;;;;;;;6.47;3.40;;;;;;;9.15;34.32;100738.81;3539661;40;20103;-74
2021/04/30 00:26:39;;;;;;;5.45;3.38;;;;;;;9.14;34.21;100749.84;3542320;40;20051;-74
2021/04/30 00:29:07;;;;;;;4.60;3.10;;;;;;;9.13;34.26;100743.53;3538711;40;20050;-74
2021/04/30 00:31:36;;;;;;;5.93;3.75;;;;;;;9.16;34.35;100742.41;3544805;40;20046;-74
2021/04/30 00:34:04;;;;;;;6.07;3.17;;;;;;;9.15;34.23;100743.38;3539713;40;20128;-74
2021/04/30 00:36:32;;;;;;;6.03;3.28;;;;;;;9.15;34.32;100746.13;3529408;40;20057;-74
2021/04/30 00:39:00;;;;;;;5.30;3.10;;;;;;;9.14;34.27;100742.53;3542894;40;20086;-73
2021/04/30 00:41:29;;;;;;;7.20;3.33;;;;;;;9.15;34.38;100754.31;3541453;40;20197;-74
2021/04/30 00:44:03;;;;;;;5.38;3.20;;;;;;;9.15;34.64;100749.72;3544202;40;20334;-74
2021/04/30 00:46:31;;;;;;;6.03;3.17;;;;;;;9.12;34.54;100751.84;3542580;40;20047;-74
2021/04/30 00:48:59;;;;;;;6.47;3.05;;;;;;;9.14;34.49;100752.56;3543690;40;20059;-74
2021/04/30 00:51:27;;;;;;;6.07;3.17;;;;;;;9.12;34.63;100758.19;3543397;40;20069;-73
2021/04/30 00:53:55;;;;;;;6.13;3.10;;;;;;;9.11;34.62;100750.97;3539294;40;20062;-74
2021/04/30 00:56:24;;;;;;;5.05;3.00;;;;;;;9.12;34.83;100757.31;3538974;40;20061;-73
2021/04/30 00:58:53;;;;;;;5.43;2.63;;;;;;;9.12;34.38;100757.31;3539074;40;20490;-74
2021/04/30 01:01:21;;;;;;;8.10;3.35;;;;;;;9.12;34.49;100757.31;3534788;40;20059;-74
2021/04/30 01:03:48;;;;;;;6.18;3.28;;;;;;;9.12;34.72;100766.38;3536946;40;20315;-74
2021/04/30 01:06:17;;;;;;;5.50;3.50;;;;;;;9.13;34.68;100761.78;3537859;40;20057;-74
2021/04/30 01:08:44;;;;;;;7.65;4.00;;;;;;;9.12;34.67;100766.38;3541320;40;20320;-74
2021/04/30 01:11:12;;;;;;;5.38;2.92;;;;;;;9.10;34.66;100762.88;3539627;40;20058;-74
2021/04/30 01:13:39;;;;;;;6.68;3.20;;;;;;;9.10;34.57;100776.53;3544485;40;20102;-73
2021/04/30 01:16:07;;;;;;;6.82;3.42;;;;;;;9.09;34.70;100766.59;3534034;40;20050;-73
2021/04/30 01:18:41;;;;;;;6.00;3.38;;;;;;;9.13;35.33;100772.69;3539155;40;20059;-73
2021/04/30 01:21:10;;;;;;;4.75;2.83;;;;;;;9.08;34.67;100777.63;3538219;40;20062;-73
2021/04/30 01:23:49;;;;;;;4.95;3.00;;;;;;;9.12;35.16;100773.69;3537956;40;20398;-74
2021/04/30 01:26:17;;;;;;;5.15;3.45;;;;;;;9.07;34.75;100784.94;3540887;40;20048;-74
2021/04/30 01:28:45;;;;;;;6.95;3.10;;;;;;;9.08;34.75;100789.41;3541034;40;20047;-74
2021/04/30 01:31:13;;;;;;;5.63;2.88;;;;;;;9.07;34.77;100784.94;3541516;40;20350;-74
2021/04/30 01:33:40;;;;;;;4.32;2.85;;;;;;;9.07;34.75;100790.41;3538830;40;20050;-74
2021/04/30 01:36:08;;;;;;;6.47;3.08;;;;;;;9.06;34.69;100793.25;3530563;40;20047;-74
2021/04/30 01:38:35;;;;;;;4.50;2.75;;;;;;;9.04;35.05;100801.59;3541829;40;20058;-74
2021/04/30 01:41:04;;;;;;;5.95;2.85;;;;;;;9.05;34.97;100791.56;3543326;40;20039;-74
2021/04/30 01:43:32;;;;;;;5.15;2.95;;;;;;;9.03;34.98;100794.41;3537520;40;20319;-73
2021/04/30 01:46:04;;;;;;;6.32;3.15;;;;;;;9.04;34.93;100798.00;3543613;40;20057;-73
2021/04/30 01:48:33;;;;;;;4.82;3.03;;;;;;;9.00;35.09;100789.19;3544927;40;20042;-73
2021/04/30 01:51:02;;;;;;;5.05;2.78;;;;;;;9.01;34.89;100793.66;3538454;40;20059;-74
2021/04/30 01:53:31;;;;;;;6.55;3.53;;;;;;;9.00;35.07;100786.44;3539425;40;20420;-74
2021/04/30 01:56:00;;;;;;;8.15;3.58;;;;;;;8.99;35.04;100792.88;3539434;40;20046;-74
2021/04/30 01:58:29;;;;;;;4.88;2.97;;;;;;;8.97;35.00;100781.25;3540977;40;20063;-74
2021/04/30 02:00:57;;;;;;;6.55;3.58;;;;;;;8.96;35.20;100794.03;3541836;40;20055;-74
2021/04/30 02:03:24;;;;;;;6.55;3.40;;;;;;;8.96;35.13;100798.63;3537610;40;20057;-74
2021/04/30 02:05:52;;;;;;;5.10;3.20;;;;;;;8.95;35.08;100794.16;3540321;40;20408;-73
2021/04/30 02:08:19;;;;;;;6.07;3.08;;;;;;;8.93;35.19;100791.53;3543417;40;20303;-73
2021/04/30 02:10:52;;;;;;;6.00;3.40;;;;;;;8.90;35.32;100794.50;3538472;40;20501;-74
2021/04/30 02:13:20;;;;;;;4.65;3.38;;;;;;;8.90;35.40;100804.53;3539696;40;20062;-74
2021/04/30 02:15:49;;;;;;;5.75;3.67;;;;;;;8.90;35.83;100788.16;3539019;40;20046;-75
2021/04/30 02:18:17;;;;;;;5.97;3.28;;;;;;;8.87;35.48;100791.16;3538886;40;20055;-75
2021/04/30 02:20:44;;;;;;;5.50;3.08;;;;;;;8.86;35.48;100790.28;3540613;40;20061;-74
2021/04/30 02:23:13;;;;;;;5.70;3.10;;;;;;;8.85;35.48;100787.69;3536825;40;20043;-74
2021/04/30 02:25:40;;;;;;;5.47;3.13;;;;;;;8.83;35.58;100795.13;3539339;40;20060;-73
2021/04/30 02:28:08;;;;;;;5.72;3.55;;;;;;;8.80;35.65;100788.06;3539862;40;20054;-73
2021/04/30 02:30:41;;;;;;;4.63;3.55;;;;;;;8.81;36.20;100787.06;3541510;40;20049;-74
2021/04/30 02:33:11;;;;;;;6.65;3.47;;;;;;;8.79;35.99;100791.78;3545528;40;20403;-74
2021/04/30 02:35:40;;;;;;;6.80;3.42;;;;;;;8.77;35.82;100790.16;3538509;40;20062;-74
2021/04/30 02:38:10;;;;;;;7.35;3.40;;;;;;;8.75;35.82;100789.41;3540179;40;20415;-74
2021/04/30 02:40:39;;;;;;;7.25;3.70;;;;;;;8.72;35.81;100785.09;3538160;40;20050;-73
2021/04/30 02:43:08;;;;;;;6.45;3.47;;;;;;;8.71;35.74;100794.25;3538033;40;20062;-74
2021/04/30 02:45:36;;;;;;;5.90;3.33;;;;;;;8.70;35.65;100795.25;3540104;40;20051;-74
2021/04/30 02:48:09;;;;;;;6.53;3.78;;;;;;;8.70;35.91;100788.91;3536056;40;20411;-73
2021/04/30 02:50:37;;;;;;;7.35;3.95;;;;;;;8.66;35.88;100785.56;3539025;40;20062;-73
2021/04/30 02:53:04;;;;;;;8.25;4.35;;;;;;;8.66;35.79;100790.13;3537810;40;20073;-73
2021/04/30 02:55:32;;;;;;;6.93;4.20;;;;;;;8.63;35.73;100791.28;3540045;40;20057;-74
2021/04/30 02:58:01;;;;;;;6.30;3.90;;;;;;;8.59;35.54;100793.34;3538865;40;20058;-74
2021/04/30 03:00:30;;;;;;;5.88;3.53;;;;;;;8.58;35.91;100791.63;3539528;40;20054;-73
2021/04/30 03:03:00;;;;;;;6.05;3.38;;;;;;;8.56;36.02;100788.13;3539670;40;20051;-74
2021/04/30 03:05:28;;;;;;;6.95;3.80;;;;;;;8.54;35.95;100792.00;3537399;40;20129;-74
2021/04/30 03:07:56;;;;;;;7.05;4.00;;;;;;;8.53;35.94;100795.72;3542942;40;20102;-73
2021/04/30 03:10:24;;;;;;;6.90;4.00;;;;;;;8.51;35.83;100793.09;3539744;40;20066;-74
2021/04/30 03:12:52;;;;;;;7.70;4.00;;;;;;;8.49;36.17;100796.91;3540688;40;20054;-73
2021/04/30 03:15:20;;;;;;;5.75;3.90;;;;;;;8.50;36.17;100796.81;3528748;40;20095;-73
2021/04/30 03:17:48;;;;;;;6.13;3.67;;;;;;;8.48;35.91;100792.47;3536795;40;20344;-74
2021/04/30 03:20:17;;;;;;;6.32;4.00;;;;;;;8.48;35.96;100797.91;3540163;40;20095;-74
2021/04/30 03:22:45;;;;;;;5.60;3.67;;;;;;;8.46;36.39;100794.47;3537646;40;20502;-73
2021/04/30 03:25:14;;;;;;;6.40;4.20;;;;;;;8.48;36.29;100792.47;3543306;40;20069;-73
2021/04/30 03:27:42;;;;;;;6.85;4.18;;;;;;;8.44;36.39;100800.03;3545814;40;20057;-73
2021/04/30 03:30:11;;;;;;;6.30;4.30;;;;;;;8.46;36.61;100798.06;3533928;40;20051;-73
2021/04/30 03:32:39;;;;;;;6.03;4.38;;;;;;;8.44;36.52;100794.56;3535320;40;20054;-73
2021/04/30 03:35:08;;;;;;;7.38;4.43;;;;;;;8.46;36.63;100797.19;3533760;40;20113;-73
2021/04/30 03:37:35;;;;;;;7.63;4.30;;;;;;;8.44;37.00;100808.19;3540744;40;20059;-73
2021/04/30 03:40:04;;;;;;;8.82;4.88;;;;;;;8.45;37.28;100809.06;3529717;40;20066;-74
2021/04/30 03:42:33;;;;;;;7.93;4.45;;;;;;;8.44;37.09;100810.06;3541408;40;20128;-73
2021/04/30 03:45:00;;;;;;;7.70;5.00;;;;;;;8.41;37.14;100805.66;3541473;40;20062;-74
2021/04/30 03:47:28;;;;;;;6.95;4.15;;;;;;;8.42;37.33;100810.13;3546776;40;20046;-74
2021/04/30 03:49:56;;;;;;;6.63;4.10;;;;;;;8.42;37.44;100803.81;3541694;40;20075;-74
2021/04/30 03:52:23;;;;;;;8.05;4.85;;;;;;;8.41;37.24;100810.25;3544154;40;20031;-74
2021/04/30 03:54:50;;;;;;;5.90;4.30;;;;;;;8.41;37.59;100829.34;3540941;40;20055;-74
2021/04/30 03:57:17;;;;;;;7.25;4.60;;;;;;;8.40;37.69;100833.91;3546296;40;20057;-74
2021/04/30 03:59:45;;;;;;;8.07;4.60;;;;;;;8.41;37.76;100837.50;3539259;40;20058;-74
2021/04/30 04:02:12;;;;;;;6.70;4.82;;;;;;;8.38;37.81;100835.91;3539677;40;20058;-74
2021/04/30 04:04:40;;;;;;;7.53;4.75;;;;;;;8.38;37.69;100829.59;3539436;40;20039;-74
2021/04/30 04:07:08;;;;;;;7.72;5.03;;;;;;;8.37;37.96;100833.31;3541842;40;20134;-74
2021/04/30 04:09:35;;;;;;;8.05;4.95;;;;;;;8.36;38.22;100829.72;3543288;40;20100;-74
2021/04/30 04:12:03;;;;;;;10.00;5.75;;;;;;;8.36;38.09;100829.72;3535454;40;20154;-74
2021/04/30 04:14:52;;;;;;;7.50;5.18;;;;;;;8.36;38.30;100832.44;3538785;40;20090;-74
2021/04/30 04:17:39;;;;;;;8.35;5.30;;;;;;;8.34;38.27;100822.63;3543187;40;20082;-75
2021/04/30 04:20:20;;;;;;;8.40;4.68;;;;;;;8.33;37.95;100827.22;3532059;40;20431;-75
2021/04/30 04:23:01;;;;;;;7.88;4.90;;;;;;;8.33;38.59;100818.16;3538032;40;20067;-75
2021/04/30 04:25:29;;;;;;;10.07;5.82;;;;;;;8.34;38.25;100819.91;3539061;40;20049;-75
2021/04/30 04:27:57;;;;;;;8.27;5.22;;;;;;;8.34;38.35;100809.88;3537756;40;20047;-75
2021/04/30 04:30:25;;;;;;;9.63;5.28;;;;;;;8.35;38.85;100813.47;3542925;40;20054;-75
2021/04/30 04:32:53;;;;;;;10.02;5.75;;;;;;;8.34;38.61;100823.50;3539278;40;20054;-75
2021/04/30 04:35:21;;;;;;;8.77;5.30;;;;;;;8.32;38.88;100822.75;3535851;40;20145;-76
2021/04/30 04:37:51;;;;;;;8.50;5.80;;;;;;;8.34;39.24;100828.94;3537583;40;20408;-75
2021/04/30 04:40:19;;;;;;;8.95;5.68;;;;;;;8.31;38.58;100829.22;3539261;40;20051;-75
2021/04/30 04:42:46;;;;;;;8.40;5.97;;;;;;;8.32;38.71;100830.91;3541598;40;20325;-75
2021/04/30 04:45:15;;;;;;;8.82;5.90;;;;;;;8.33;38.81;100837.25;3544296;40;20058;-75
2021/04/30 04:47:44;;;;;;;10.38;6.15;;;;;;;8.33;38.92;100837.25;3538393;40;20079;-75
2021/04/30 04:50:13;;;;;;;9.80;6.30;;;;;;;8.32;39.17;100832.78;3543143;40;20062;-75
2021/04/30 04:52:40;;;;;;;10.55;7.10;;;;;;;8.31;38.88;100834.66;3539577;40;20058;-75
2021/04/30 04:55:10;;;;;;;10.45;6.00;;;;;;;8.32;39.00;100830.03;3539032;40;20061;-75
2021/04/30 04:57:38;;;;;;;9.73;5.88;;;;;;;8.31;39.20;100837.38;3542479;40;20124;-76
2021/04/30 05:00:08;;;;;;;9.57;5.78;;;;;;;8.33;39.07;100839.97;3542951;40;20051;-75
2021/04/30 05:02:35;;;;;;;9.32;6.15;;;;;;;8.30;39.25;100846.53;3542190;40;20065;-75
2021/04/30 05:05:04;;;;;;;9.85;6.45;;;;;;;8.33;39.12;100845.41;3540769;40;20113;-75
2021/04/30 05:07:32;;;;;;;9.02;6.47;;;;;;;8.31;38.92;100839.25;3540928;40;20056;-75
2021/04/30 05:10:00;;;;;;;12.43;6.85;;;;;;;8.32;39.14;100846.41;3538328;40;20054;-75
2021/04/30 05:12:28;;;;;;;11.70;7.25;;;;;;;8.33;39.28;100853.59;3539675;40;20401;-74
2021/04/30 05:14:55;;;;;;;8.90;6.47;;;;;;;8.32;39.27;100851.84;3542438;40;20054;-75
2021/04/30 05:17:22;;;;;;;8.68;6.90;;;;;;;8.32;39.46;100854.56;3540334;40;20055;-75
2021/04/30 05:19:50;;;;;;;10.20;7.45;;;;;;;8.31;39.21;100859.19;3537557;40;20062;-76
2021/04/30 05:22:19;;;;;;;12.70;7.45;;;;;;;8.33;39.40;100854.47;3538017;40;20086;-75
2021/04/30 05:24:46;;;;;;;9.93;6.45;;;;;;;8.31;39.18;100856.47;3537924;40;20325;-75
2021/04/30 05:27:15;;;;;;;9.73;6.75;;;;;;;8.32;39.52;100860.91;3539126;40;20050;-75
2021/04/30 05:29:44;;;;;;;10.77;7.38;;;;;;;8.33;39.47;100859.03;3544106;40;20058;-75
2021/04/30 05:32:12;;;;;;;9.40;7.05;;;;;;;8.32;39.40;100868.19;3540975;40;20047;-75
2021/04/30 05:34:41;;;;;;;11.93;8.10;;;;;;;8.32;39.26;100865.47;3546868;40;20395;-75
2021/04/30 05:37:10;;;;;;;9.07;6.80;;;;;;;8.32;39.39;100862.75;3542794;40;20315;-75
2021/04/30 05:39:38;;;;;;;10.77;6.97;;;;;;;8.33;39.61;100868.09;3538050;40;20328;-75
2021/04/30 05:42:06;;;;;;;10.43;7.55;;;;;;;8.32;39.27;100862.75;3538280;40;20046;-75
2021/04/30 05:44:35;;;;;;;11.18;7.70;;;;;;;8.32;39.41;100865.47;3538266;40;20031;-79
2021/04/30 05:47:03;;;;;;;10.85;7.97;;;;;;;8.33;39.52;100873.53;3538925;40;20046;-78
2021/04/30 05:49:30;;;;;;;10.85;7.63;;;;;;;8.33;39.52;100875.38;3541418;40;20424;-81
2021/04/30 05:51:58;;;;;;;10.90;7.97;;;;;;;8.32;39.54;100882.69;3538423;40;20397;-75
2021/04/30 05:54:25;;;;;;;12.48;8.10;;;;;;;8.31;39.50;100889.16;3535006;40;20066;-75
2021/04/30 05:56:54;;;;;;;10.85;8.07;;;;;;;8.33;39.38;100889.03;3542731;40;20087;-76
2021/04/30 05:59:21;;;;;;;10.95;7.82;;;;;;;8.30;39.51;100879.25;3544388;40;20304;-78
2021/04/30 06:01:48;;;;;;;8.95;7.25;;;;;;;8.31;39.40;100874.66;3536721;40;20640;-74
2021/04/30 06:04:16;;;;;;;10.38;8.02;;;;;;;8.33;39.40;100879.00;3540354;40;20050;-74
2021/04/30 06:06:49;;;;;;;10.05;7.65;;;;;;;8.31;39.20;100877.38;3536745;40;20138;-75
2021/04/30 06:09:19;;;;;;;12.73;8.40;;;;;;;8.29;39.56;100877.50;3539262;40;20415;-74
2021/04/30 06:11:48;;;;;;;10.95;7.70;;;;;;;8.30;39.12;100884.69;3537634;40;20055;-74
2021/04/30 06:14:16;;;;;;;10.35;7.53;;;;;;;8.31;39.60;100888.28;3539712;40;20418;-74
2021/04/30 06:16:44;;;;;;;12.18;7.70;;;;;;;8.28;39.54;100875.75;3540675;40;20061;-74
2021/04/30 06:19:11;;;;;;;8.82;6.57;;;;;;;8.29;39.19;100885.69;3539272;40;20143;-72
2021/04/30 06:21:38;;;;;;;11.95;7.82;;;;;;;8.28;39.66;100886.66;3541736;40;20141;-71
2021/04/30 06:24:07;;;;;;;10.90;7.53;;;;;;;8.29;39.34;100891.13;3537998;40;20087;-72
2021/04/30 06:26:34;;;;;;;10.32;7.75;;;;;;;8.29;39.34;100891.13;3539350;40;20133;-72
2021/04/30 06:29:02;;;;;;;12.38;7.70;;;;;;;8.29;39.26;100890.25;3538946;40;20051;-71
2021/04/30 06:31:31;;;;;;;10.27;7.45;;;;;;;8.30;39.44;100892.00;3537018;40;20054;-71
2021/04/30 06:33:58;;;;;;;11.85;8.05;;;;;;;8.29;39.56;100888.41;3536732;40;20078;-71
2021/04/30 06:36:28;;;;;;;11.35;8.30;;;;;;;8.32;39.89;100893.59;3532606;40;20294;-72
2021/04/30 06:39:09;;;;;;;12.43;7.97;;;;;;;8.29;39.49;100887.53;3537180;40;20082;-73
2021/04/30 06:41:40;;;;;;;13.50;8.13;;;;;;;8.27;39.28;100887.66;3530508;40;20027;-71
2021/04/30 06:44:07;;;;;;;12.80;8.23;;;;;;;8.29;39.34;100891.13;3537732;40;20046;-72
2021/04/30 06:46:37;;;;;;;12.30;8.60;;;;;;;8.30;39.48;100875.66;3535974;40;20055;-67
2021/04/30 06:49:06;;;;;;;12.75;7.45;;;;;;;8.30;39.76;100884.69;3552403;40;20050;-70
2021/04/30 06:51:34;;;;;;;9.73;7.13;;;;;;;8.30;39.74;100892.88;3541661;40;20508;-71
2021/04/30 06:54:03;;;;;;;9.93;7.47;;;;;;;8.31;39.78;100893.75;3535559;40;20059;-71
2021/04/30 06:56:31;;;;;;;11.35;7.93;;;;;;;8.31;39.91;100894.63;3533414;40;20090;-72
2021/04/30 06:58:59;;;;;;;10.63;8.38;;;;;;;8.33;40.01;100903.53;3537056;40;20137;-71
2021/04/30 07:01:27;;;;;;;12.05;7.53;;;;;;;8.34;39.91;100896.22;3538232;40;20156;-71
2021/04/30 07:03:56;;;;;;;11.32;7.90;;;;;;;8.35;39.62;100904.28;3538770;40;20084;-72
2021/04/30 07:06:23;;;;;;;13.15;7.30;;;;;;;8.35;39.88;100897.97;3540801;40;20055;-71
2021/04/30 07:08:51;;;;;;;11.02;7.75;;;;;;;8.35;39.82;100896.09;3538374;40;20058;-72
2021/04/30 07:11:20;;;;;;;12.75;8.10;;;;;;;8.36;39.92;100897.84;3536968;40;20379;-72
2021/04/30 07:13:47;;;;;;;11.40;7.95;;;;;;;8.36;39.87;100900.56;3538553;40;20058;-71
2021/04/30 07:16:15;;;;;;;11.82;8.30;;;;;;;8.36;39.61;100900.56;3539110;40;20406;-72
2021/04/30 07:18:42;;;;;;;12.80;7.65;;;;;;;8.37;40.01;100905.03;3538990;40;20136;-72
2021/04/30 07:21:10;;;;;;;10.02;7.55;;;;;;;8.39;39.94;100899.47;3540067;40;20039;-72
2021/04/30 07:23:38;;;;;;;13.10;9.23;;;;;;;8.38;40.00;100901.34;3539195;40;20061;-71
2021/04/30 07:26:05;;;;;;;11.88;7.63;;;;;;;8.41;39.99;100903.81;3540830;40;20051;-73
2021/04/30 07:28:33;;;;;;;11.55;8.43;;;;;;;8.42;40.16;100896.50;3539048;40;20039;-78
2021/04/30 07:31:02;;;;;;;13.13;8.70;;;;;;;8.44;40.26;100909.06;3537764;40;20041;-74
2021/04/30 07:33:30;;;;;;;14.85;8.98;;;;;;;8.45;40.09;100909.94;3539174;40;20046;-74
2021/04/30 07:36:04;;;;;;;12.48;8.52;;;;;;;8.47;40.08;100917.03;3539532;40;20058;-73
2021/04/30 07:38:32;;;;;;;12.05;8.63;;;;;;;8.50;40.14;100907.72;3539140;40;20391;-73
2021/04/30 07:41:00;;;;;;;10.32;7.40;;;;;;;8.51;40.25;100914.91;3539687;40;20074;-74
2021/04/30 07:43:28;;;;;;;11.93;8.07;;;;;;;8.52;40.07;100911.19;3540651;40;20042;-74
2021/04/30 07:45:55;;;;;;;14.00;8.50;;;;;;;8.54;40.10;100918.28;3536003;40;20315;-73
2021/04/30 07:48:22;;;;;;;10.88;8.00;;;;;;;8.56;40.25;100916.28;3539684;40;20121;-75
2021/04/30 07:50:56;;;;;;;13.93;9.15;;;;;;;8.56;40.30;100916.28;3540831;40;20035;-76
2021/04/30 07:53:25;;;;;;;9.80;7.55;;;;;;;8.59;40.10;100913.34;3537997;40;20395;-73
2021/04/30 07:55:54;;;;;;;12.10;8.98;;;;;;;8.64;40.17;100923.91;3542572;40;20055;-73
2021/04/30 07:58:25;;;;;;;10.82;7.70;;;;;;;8.65;40.20;100925.63;3542541;40;20059;-74
2021/04/30 08:00:54;;;;;;;11.98;8.50;;;;;;;8.70;40.52;100922.53;3540716;40;20090;-75
2021/04/30 08:03:22;;;;;;;13.82;8.25;;;;;;;8.71;40.40;100918.84;3537298;40;20439;-73
2021/04/30 08:05:50;;;;;;;12.50;8.90;;;;;;;8.73;40.62;100925.00;3535525;40;20057;-73
2021/04/30 08:08:17;;;;;;;13.63;9.18;;;;;;;8.75;40.52;100914.88;3538245;40;20400;-74
2021/04/30 08:10:45;;;;;;;12.75;9.23;;;;;;;8.76;40.57;100920.22;3540067;40;20513;-73
2021/04/30 08:13:13;;;;;;;11.73;7.50;;;;;;;8.80;40.33;100934.50;3541809;40;20323;-73
2021/04/30 08:15:41;;;;;;;11.82;8.68;;;;;;;8.80;40.65;100923.59;3543594;40;20403;-73
2021/04/30 08:18:10;;;;;;;14.45;9.70;;;;;;;8.83;40.57;100937.84;3536281;40;20095;-72
2021/04/30 08:20:37;;;;;;;14.25;8.43;;;;;;;8.83;40.21;100929.66;3535756;40;20061;-72
2021/04/30 08:23:29;;;;;;;10.63;8.10;;;;;;;8.84;40.87;100936.84;3537054;40;20046;-74
2021/04/30 08:25:57;;;;;;;13.50;8.48;;;;;;;8.84;40.42;100927.78;3537738;40;20363;-73
2021/04/30 08:28:26;;;;;;;12.77;8.13;;;;;;;8.87;40.40;100927.56;3536036;40;20062;-73
2021/04/30 08:30:54;;;;;;;13.35;9.00;;;;;;;8.87;40.43;100933.03;3537800;40;20057;-74
2021/04/30 08:33:24;;;;;;;13.73;9.93;;;;;;;8.88;40.51;100932.03;3535284;40;20066;-74
2021/04/30 08:35:52;;;;;;;10.68;8.00;;;;;;;8.89;40.60;100934.63;3543122;40;20050;-73
2021/04/30 08:38:19;;;;;;;12.95;8.43;;;;;;;8.89;40.47;100939.19;3539666;40;20050;-74
2021/04/30 08:40:47;;;;;;;12.35;9.38;;;;;;;8.89;40.36;100939.19;3542203;40;20479;-75
2021/04/30 08:43:17;;;;;;;10.05;8.45;;;;;;;8.91;40.41;100939.97;3542780;40;20054;-73
2021/04/30 08:45:47;;;;;;;13.02;8.65;;;;;;;8.91;40.46;100940.81;3533796;40;20058;-75
2021/04/30 08:48:15;;;;;;;12.45;8.93;;;;;;;8.92;40.47;100948.03;3540573;40;20315;-75
2021/04/30 08:50:43;;;;;;;11.63;7.93;;;;;;;8.91;40.49;100942.69;3538154;40;20677;-74
2021/04/30 08:53:11;;;;;;;12.93;8.23;;;;;;;8.92;40.83;100948.03;3538405;40;20138;-72
2021/04/30 08:55:41;;;;;;;13.52;8.65;;;;;;;8.93;40.69;100957.09;3541678;40;20051;-73
2021/04/30 08:58:10;;;;;;;12.70;9.15;;;;;;;8.92;40.62;100953.50;3543673;40;20065;-74
2021/04/30 09:00:37;;;;;;;11.00;7.78;;;;;;;8.93;40.92;100957.09;3544189;40;20054;-74
2021/04/30 09:03:09;;;;;;;12.50;8.77;;;;;;;8.97;41.34;100962.16;3539168;40;20058;-73
2021/04/30 09:05:37;;;;;;;13.60;9.32;;;;;;;8.95;40.80;100968.75;3541095;40;20087;-73
2021/04/30 09:08:05;;;;;;;13.07;9.55;;;;;;;8.96;40.79;100965.03;3539947;40;20054;-73
2021/04/30 09:10:39;;;;;;;14.20;8.82;;;;;;;9.00;41.87;100967.41;3541664;40;20118;-74
2021/04/30 09:13:08;;;;;;;14.82;8.40;;;;;;;8.99;40.93;100964.78;3536444;40;20145;-73
2021/04/30 09:15:38;;;;;;;13.43;8.77;;;;;;;9.01;41.01;100968.28;3536842;40;20055;-73
2021/04/30 09:18:24;;;;;;;14.20;9.43;;;;;;;9.02;41.89;100972.75;3535834;40;20054;-73
2021/04/30 09:20:53;;;;;;;14.18;10.95;;;;;;;9.01;41.12;100969.13;3541034;40;20148;-73
2021/04/30 09:23:39;;;;;;;14.32;9.82;;;;;;;9.03;41.14;100966.28;3533988;40;20412;-75
2021/04/30 09:26:22;;;;;;;13.63;9.63;;;;;;;9.07;41.90;100970.50;3537634;40;20059;-74
2021/04/30 09:29:04;;;;;;;14.35;10.57;;;;;;;9.08;42.06;100966.78;3533419;40;20063;-73
2021/04/30 09:31:36;;;;;;;17.42;10.70;;;;;;;9.08;41.39;100965.91;3535476;40;20358;-72
2021/04/30 09:34:24;;;;;;;17.23;10.95;;;;;;;9.11;42.20;100968.41;3538761;40;20046;-73
2021/04/30 09:37:10;;;;;;;17.30;10.60;;;;;;;9.11;42.11;100969.28;3537788;40;20300;-71
2021/04/30 09:39:53;;;;;;;14.07;10.00;;;;;;;9.14;42.33;100965.44;3541609;40;20066;-73
2021/04/30 09:42:23;;;;;;;15.77;10.80;;;;;;;9.14;41.61;100970.88;3538460;40;20035;-71
2021/04/30 09:44:52;;;;;;;13.02;8.88;;;;;;;9.14;41.56;100969.03;3544438;40;20537;-75
2021/04/30 09:47:24;;;;;;;14.70;9.57;;;;;;;9.16;41.67;100967.06;3539478;40;20061;-76
2021/04/30 09:49:56;;;;;;;15.18;10.27;;;;;;;9.16;41.64;100967.06;3537423;40;20465;-73
2021/04/30 09:52:25;;;;;;;13.85;8.95;;;;;;;9.17;41.56;100968.81;3538255;40;20058;-74
2021/04/30 09:55:01;;;;;;;12.55;8.27;;;;;;;9.20;41.91;100974.03;3538696;40;20050;-73
2021/04/30 09:57:33;;;;;;;14.15;9.65;;;;;;;9.20;41.49;100974.03;3542277;40;20128;-73
2021/04/30 10:00:06;;;;;;;12.27;9.57;;;;;;;9.24;41.65;100977.38;3544248;40;20141;-73
2021/04/30 10:02:40;;;;;;;14.57;10.05;;;;;;;9.24;41.32;100975.50;3539982;40;20058;-72
2021/04/30 10:05:11;;;;;;;17.90;10.70;;;;;;;9.30;41.93;100977.75;3538511;40;20061;-71
2021/04/30 10:07:58;;;;;;;14.82;8.48;;;;;;;9.29;41.65;100976.03;3538122;40;20045;-72
2021/04/30 10:10:26;;;;;;;13.57;9.18;;;;;;;9.34;41.82;100973.81;3537650;40;20141;-73
2021/04/30 10:12:55;;;;;;;17.23;9.55;;;;;;;9.38;41.68;100974.44;3538527;40;20062;-74
2021/04/30 10:15:22;;;;;;;13.85;9.25;;;;;;;9.42;41.66;100972.31;3540628;40;20039;-73
2021/04/30 10:17:55;;;;;;;12.75;8.52;;;;;;;9.47;42.02;100978.28;3540213;40;20079;-73
2021/04/30 10:20:24;;;;;;;13.32;8.35;;;;;;;9.47;41.55;100968.22;3538244;40;20067;-73
2021/04/30 10:22:54;;;;;;;13.65;8.15;;;;;;;9.51;41.56;100977.91;3535263;40;20082;-79
2021/04/30 10:25:27;;;;;;;13.90;8.75;;;;;;;9.54;41.75;100964.03;3536470;40;20070;-71
2021/04/30 10:27:56;;;;;;;13.25;8.77;;;;;;;9.61;41.68;100968.00;3538980;40;20301;-71
2021/04/30 10:30:30;;;;;;;12.73;8.32;;;;;;;9.67;41.70;100964.75;3529768;40;20102;-72
2021/04/30 10:33:04;;;;;;;12.02;9.23;;;;;;;9.72;41.72;100968.00;3543992;40;20046;-71
2021/04/30 10:35:40;;;;;;;18.08;9.88;;;;;;;9.80;41.93;100964.66;3537377;40;20090;-71
2021/04/30 10:38:13;;;;;;;12.95;8.75;;;;;;;9.86;41.52;100963.31;3536600;40;21066;-72
2021/04/30 10:40:50;;;;;;;;;;;;;;;9.64;41.91;100961.41;3539272;40;20069;-73
2021/04/30 10:43:19;;;;;;;11.23;7.43;;;;;;;9.93;41.45;100956.34;3538911;40;19996;-74
2021/04/30 10:46:04;;;;;;;10.32;7.32;;;;;;;10.03;41.38;100960.94;3540483;40;20116;-72
2021/04/30 10:48:33;;;;;;;10.63;7.72;;;;;;;10.06;41.09;100959.78;3544396;40;20436;-72
2021/04/30 10:51:15;;;;;;;14.57;9.27;;;;;;;10.15;41.00;100959.91;3541809;40;20149;-73
2021/04/30 10:53:45;;;;;;;13.38;9.65;;;;;;;10.18;40.92;100947.84;3537263;40;20050;-72
2021/04/30 10:56:31;;;;;;;13.07;9.45;;;;;;;10.26;40.72;100952.69;3539191;40;20105;-74
2021/04/30 10:58:59;;;;;;;16.40;9.95;;;;;;;10.28;40.76;100945.22;3548503;40;20050;-74
2021/04/30 11:01:32;;;;;;;14.20;9.40;;;;;;;10.36;40.90;100948.19;3541169;40;20070;-73
2021/04/30 11:04:15;;;;;;;14.07;9.73;;;;;;;10.41;41.29;100938.59;3542131;40;20129;-73
2021/04/30 11:06:47;;;;;;;15.40;10.00;;;;;;;10.49;40.82;100925.13;3538448;40;20436;-73
2021/04/30 11:09:20;;;;;;;15.90;10.10;;;;;;;10.60;41.05;100921.50;3538823;40;20093;-73
2021/04/30 11:11:48;;;;;;;13.55;10.13;;;;;;;10.68;41.03;100923.56;3540199;40;20054;-73
2021/04/30 11:14:38;;;;;;;14.80;9.93;;;;;;;10.80;41.09;100914.28;3543105;40;20149;-73
2021/04/30 11:17:07;;;;;;;15.50;10.48;;;;;;;10.91;40.69;100922.47;3535529;40;20050;-74
2021/04/30 11:19:45;;;;;;;13.57;9.63;;;;;;;11.08;40.76;100919.13;3539936;40;20045;-73
2021/04/30 11:22:14;;;;;;;15.60;10.57;;;;;;;11.19;40.73;100924.56;3536633;40;20038;-72
2021/04/30 11:24:45;;;;;;;12.80;9.60;;;;;;;11.31;40.56;100919.84;3540678;40;20031;-72
2021/04/30 11:27:36;;;;;;;14.88;10.27;;;;;;;11.43;40.42;100920.63;3540277;40;20057;-72
2021/04/30 11:30:25;;;;;;;16.10;10.77;;;;;;;11.53;40.06;100924.25;3538538;40;20333;-72
2021/04/30 11:33:01;;;;;;;16.98;11.27;;;;;;;11.66;39.78;100924.91;3539920;40;20081;-73
2021/04/30 11:35:30;;;;;;;15.45;10.52;;;;;;;11.72;39.48;100918.88;3545867;40;20047;-72
2021/04/30 11:37:58;;;;;;;17.33;11.63;;;;;;;11.81;39.24;100911.69;3536383;40;20356;-75
2021/04/30 11:40:27;;;;;;;14.90;11.18;;;;;;;11.85;38.99;100908.56;3540045;40;20316;-74